createdAt,value
2023-04-01T00:03:30.584Z,9.69
2023-04-01T00:08:33.066Z,9.62
2023-04-01T00:13:34.927Z,9.49
2023-04-01T00:18:36.515Z,9.35
2023-04-01T00:23:38.289Z,9.14
2023-04-01T00:28:39.831Z,9.14
2023-04-01T00:33:42.157Z,9.18
2023-04-01T00:38:44.257Z,9.19
2023-04-01T00:43:48.690Z,9.16
2023-04-01T00:48:54.968Z,9.19
2023-04-01T00:54:00.253Z,9.27
2023-04-01T00:59:16.170Z,9.28
2023-04-01T01:04:35.921Z,9.21
2023-04-01T01:09:48.379Z,9.25
2023-04-01T01:14:56.979Z,9.19
2023-04-01T01:20:32.348Z,9.09
2023-04-01T01:26:02.286Z,9.00
2023-04-01T01:31:36.835Z,9.01
2023-04-01T01:36:41.162Z,9.06
2023-04-01T01:41:44.968Z,9.05
2023-04-01T01:46:47.760Z,9.05
2023-04-01T01:51:49.307Z,9.07
2023-04-01T01:56:56.711Z,9.13
2023-04-01T02:02:00.061Z,9.13
2023-04-01T02:07:03.665Z,9.09
2023-04-01T02:12:09.996Z,9.14
2023-04-01T02:17:16.069Z,9.15
2023-04-01T02:22:24.902Z,9.12
2023-04-01T02:27:26.999Z,9.09
2023-04-01T02:32:30.926Z,9.02
2023-04-01T02:37:34.340Z,9.00
2023-04-01T02:42:37.853Z,8.89
2023-04-01T02:47:39.744Z,8.78
2023-04-01T02:52:41.349Z,8.67
2023-04-01T02:57:42.860Z,8.65
2023-04-01T03:02:45.413Z,8.66
2023-04-01T03:07:47.159Z,8.54
2023-04-01T03:12:48.734Z,8.41
2023-04-01T03:17:50.391Z,8.39
2023-04-01T03:22:51.992Z,8.43
2023-04-01T03:27:53.472Z,8.38
2023-04-01T03:32:55.005Z,8.23
2023-04-01T03:37:56.689Z,8.15
2023-04-01T03:42:58.260Z,8.09
2023-04-01T03:47:59.941Z,7.99
2023-04-01T03:53:01.577Z,7.85
2023-04-01T03:58:03.665Z,7.81
2023-04-01T04:03:07.324Z,7.86
2023-04-01T04:08:08.992Z,7.90
2023-04-01T04:13:10.837Z,8.04
2023-04-01T04:18:12.314Z,8.15
2023-04-01T04:23:13.801Z,8.20
2023-04-01T04:28:15.432Z,8.27
2023-04-01T04:33:17.004Z,8.34
2023-04-01T04:38:18.990Z,8.37
2023-04-01T04:43:21.006Z,8.39
2023-04-01T04:48:22.634Z,8.48
2023-04-01T04:53:24.135Z,8.59
2023-04-01T04:58:25.650Z,8.65
2023-04-01T05:03:27.219Z,8.68
2023-04-01T05:08:28.819Z,8.74
2023-04-01T05:13:30.523Z,8.93
2023-04-01T05:18:31.994Z,9.11
2023-04-01T05:23:34.147Z,9.27
2023-04-01T05:28:35.893Z,9.39
2023-04-01T05:33:37.570Z,9.45
2023-04-01T05:38:39.909Z,9.41
2023-04-01T05:43:41.972Z,9.36
2023-04-01T05:48:43.469Z,9.46
2023-04-01T05:53:45.516Z,9.58
2023-04-01T05:58:52.314Z,9.75
2023-04-01T06:03:54.300Z,9.95
2023-04-01T06:08:59.389Z,10.00
2023-04-01T06:14:19.402Z,9.99
2023-04-01T06:19:34.018Z,9.99
2023-04-01T06:24:48.391Z,10.06
2023-04-01T06:30:35.696Z,10.19
2023-04-01T06:36:03.779Z,10.33
2023-04-01T06:41:44.293Z,10.42
2023-04-01T06:47:21.002Z,10.48
2023-04-01T06:52:37.574Z,10.56
2023-04-01T06:57:44.982Z,10.68
2023-04-01T07:02:54.784Z,10.85
2023-04-01T07:08:01.043Z,11.18
2023-04-01T07:13:10.844Z,11.36
2023-04-01T07:18:38.405Z,11.20
2023-04-01T07:23:46.309Z,11.03
2023-04-01T07:28:49.304Z,10.85
2023-04-01T07:34:23.967Z,10.74
2023-04-01T07:39:31.709Z,10.77
2023-04-01T07:44:56.053Z,10.95
2023-04-01T07:50:05.643Z,11.41
2023-04-01T07:55:23.487Z,11.92
2023-04-01T08:00:37.499Z,12.25
2023-04-01T08:05:58.762Z,12.18
2023-04-01T08:11:15.424Z,12.23
2023-04-01T08:16:27.473Z,12.53
2023-04-01T08:21:53.736Z,12.79
2023-04-01T08:27:00.977Z,12.70
2023-04-01T08:32:22.433Z,12.74
2023-04-01T08:37:31.579Z,12.76
2023-04-01T08:42:35.879Z,12.89
2023-04-01T08:48:15.568Z,13.03
2023-04-01T08:53:43.960Z,13.18
2023-04-01T08:59:14.154Z,12.95
2023-04-01T09:04:43.558Z,12.71
2023-04-01T09:10:10.372Z,12.71
2023-04-01T09:15:41.190Z,12.87
2023-04-01T09:20:57.728Z,12.75
2023-04-01T09:26:08.672Z,12.50
2023-04-01T09:31:18.493Z,12.54
2023-04-01T09:36:31.357Z,12.87
2023-04-01T09:41:56.124Z,13.31
2023-04-01T09:47:28.990Z,13.60
2023-04-01T09:53:20.794Z,13.75
2023-04-01T09:58:54.395Z,13.84
2023-04-01T10:04:17.410Z,13.73
2023-04-01T10:09:50.398Z,13.47
2023-04-01T10:15:10.505Z,13.12
2023-04-01T10:20:55.469Z,12.88
2023-04-01T10:26:12.660Z,12.94
2023-04-01T10:31:19.901Z,12.91
2023-04-01T10:36:59.222Z,12.82
2023-04-01T10:42:22.317Z,12.95
2023-04-01T10:47:45.958Z,13.14
2023-04-01T10:52:47.497Z,13.33
2023-04-01T10:58:01.228Z,13.04
2023-04-01T11:03:30.896Z,12.63
2023-04-01T11:08:57.384Z,12.56
2023-04-01T11:14:17.731Z,12.86
2023-04-01T11:19:59.224Z,13.05
2023-04-01T11:25:48.209Z,13.10
2023-04-01T11:31:02.491Z,13.01
2023-04-01T11:36:31.558Z,12.54
2023-04-01T11:41:46.457Z,12.13
2023-04-01T11:46:47.931Z,12.07
2023-04-01T11:52:02.510Z,11.85
2023-04-01T11:57:07.046Z,11.60
2023-04-01T12:02:34.505Z,11.41
2023-04-01T12:07:58.910Z,11.24
2023-04-01T12:13:19.366Z,11.12
2023-04-01T12:18:27.061Z,11.16
2023-04-01T12:23:53.243Z,11.18
2023-04-01T12:29:17.804Z,11.33
2023-04-01T12:34:46.580Z,11.55
2023-04-01T12:40:20.465Z,11.94
2023-04-01T12:45:40.571Z,12.27
2023-04-01T12:51:03.951Z,12.46
2023-04-01T12:56:29.027Z,12.67
2023-04-01T13:02:21.343Z,12.93
2023-04-01T13:07:31.654Z,13.10
2023-04-01T13:12:55.468Z,13.12
2023-04-01T13:18:19.583Z,13.14
2023-04-01T13:23:30.038Z,13.06
2023-04-01T13:28:41.698Z,13.12
2023-04-01T13:34:15.382Z,13.13
2023-04-01T13:39:25.752Z,13.11
2023-04-01T13:44:33.373Z,13.15
2023-04-01T13:50:10.378Z,13.19
2023-04-01T13:55:25.406Z,13.18
2023-04-01T14:00:54.400Z,13.29
2023-04-01T14:06:01.889Z,13.39
2023-04-01T14:11:28.980Z,13.47
2023-04-01T14:16:50.804Z,13.55
2023-04-01T14:22:01.182Z,13.65
2023-04-01T14:27:20.896Z,13.86
2023-04-01T14:32:28.363Z,14.00
2023-04-01T14:37:55.163Z,14.14
2023-04-01T14:43:12.113Z,14.15
2023-04-01T14:48:26.258Z,13.90
2023-04-01T14:53:31.912Z,13.65
2023-04-01T14:58:47.691Z,13.30
2023-04-01T15:04:01.484Z,12.92
2023-04-01T15:09:20.599Z,12.23
2023-04-01T15:14:48.575Z,11.60
2023-04-01T15:20:01.451Z,11.24
2023-04-01T15:25:18.240Z,11.14
2023-04-01T15:30:36.900Z,11.00
2023-04-01T15:36:09.727Z,10.92
2023-04-01T15:41:29.585Z,10.95
2023-04-01T15:46:49.797Z,10.93
2023-04-01T15:52:11.526Z,10.77
2023-04-01T15:57:52.752Z,10.54
2023-04-01T16:03:20.318Z,10.45
2023-04-01T16:08:57.708Z,10.33
2023-04-01T16:14:05.489Z,10.15
2023-04-01T16:19:38.170Z,10.00
2023-04-01T16:25:01.544Z,9.89
2023-04-01T16:30:18.861Z,9.79
2023-04-01T16:35:59.269Z,9.67
2023-04-01T16:41:03.611Z,9.50
2023-04-01T16:46:17.086Z,9.48
2023-04-01T16:51:20.366Z,9.39
2023-04-01T16:56:28.691Z,9.38
2023-04-01T17:01:34.698Z,9.35
2023-04-01T17:07:03.495Z,9.29
2023-04-01T17:12:24.335Z,9.22
2023-04-01T17:17:47.709Z,9.12
2023-04-01T17:23:00.795Z,9.04
2023-04-01T17:28:35.692Z,8.93
2023-04-01T17:34:06.532Z,8.88
2023-04-01T17:39:27.652Z,8.88
2023-04-01T17:44:41.397Z,8.87
2023-04-01T17:50:04.136Z,8.81
2023-04-01T17:55:27.448Z,8.77
2023-04-01T18:00:57.720Z,8.71
2023-04-01T18:06:19.908Z,8.75
2023-04-01T18:11:40.466Z,8.69
2023-04-01T18:16:41.954Z,8.68
2023-04-01T18:21:54.609Z,8.71
2023-04-01T18:27:19.374Z,8.54
2023-04-01T18:32:33.012Z,8.47
2023-04-01T18:37:46.974Z,8.44
2023-04-01T18:43:10.688Z,8.38
2023-04-01T18:48:52.578Z,8.36
2023-04-01T18:54:33.484Z,8.35
2023-04-01T18:59:42.382Z,8.30
2023-04-01T19:04:51.709Z,8.31
2023-04-01T19:09:53.368Z,8.30
2023-04-01T19:15:01.160Z,8.29
2023-04-01T19:20:15.144Z,8.37
2023-04-01T19:25:38.471Z,8.41
2023-04-01T19:31:00.187Z,8.38
2023-04-01T19:36:26.455Z,8.39
2023-04-01T19:41:43.299Z,8.43
2023-04-01T19:46:54.525Z,8.40
2023-04-01T19:52:29.628Z,8.43
2023-04-01T19:58:13.033Z,8.38
2023-04-01T20:03:34.687Z,8.33
2023-04-01T20:08:40.397Z,8.36
2023-04-01T20:13:50.387Z,8.27
2023-04-01T20:19:03.997Z,8.23
2023-04-01T20:24:34.722Z,8.21
2023-04-01T20:29:38.616Z,8.18
2023-04-01T20:35:03.189Z,8.21
2023-04-01T20:40:32.455Z,8.22
2023-04-01T20:45:44.072Z,8.15
2023-04-01T20:51:00.022Z,8.17
2023-04-01T20:56:13.844Z,8.17
2023-04-01T21:01:21.548Z,8.09
2023-04-01T21:06:35.138Z,8.11
2023-04-01T21:11:39.390Z,8.11
2023-04-01T21:16:56.450Z,8.08
2023-04-01T21:22:18.245Z,8.16
2023-04-01T21:27:44.125Z,8.10
2023-04-01T21:33:17.535Z,8.00
2023-04-01T21:38:39.641Z,7.98
2023-04-01T21:44:15.360Z,7.91
2023-04-01T21:49:22.751Z,7.87
2023-04-01T21:55:02.113Z,7.89
2023-04-01T22:00:29.693Z,7.82
2023-04-01T22:05:56.533Z,7.79
2023-04-01T22:11:10.278Z,7.73
2023-04-01T22:16:29.424Z,7.73
2023-04-01T22:21:39.784Z,7.76
2023-04-01T22:27:18.895Z,7.75
2023-04-01T22:32:51.773Z,7.69
2023-04-01T22:38:09.201Z,7.62
2023-04-01T22:43:24.242Z,7.61
2023-04-01T22:48:33.928Z,7.59
2023-04-01T22:53:53.432Z,7.52
2023-04-01T22:59:01.888Z,7.44
2023-04-01T23:04:06.230Z,7.44
2023-04-01T23:09:20.936Z,7.42
2023-04-01T23:14:24.408Z,7.36
2023-04-01T23:20:06.909Z,7.39
2023-04-01T23:25:47.762Z,7.37
2023-04-01T23:30:50.990Z,7.32
2023-04-01T23:35:52.498Z,7.29
2023-04-01T23:40:56.577Z,7.26
2023-04-01T23:46:01.562Z,7.22
2023-04-01T23:51:04.278Z,7.20
2023-04-01T23:56:07.138Z,7.17
